sensor_id;sensor_type;location;lat;lon;timestamp;P1;durP1;ratioP1;P2;durP2;ratioP2
8488;SDS011;4281;45.772;12.852;2022-10-18T00:01:08;65.53;;;58.63;;
8488;SDS011;4281;45.772;12.852;2022-10-18T00:03:36;69.03;;;61.63;;
8488;SDS011;4281;45.772;12.852;2022-10-18T00:06:05;70.47;;;61.53;;
8488;SDS011;4281;45.772;12.852;2022-10-18T00:08:35;73.33;;;65.30;;
8488;SDS011;4281;45.772;12.852;2022-10-18T00:11:06;69.13;;;61.67;;
8488;SDS011;4281;45.772;12.852;2022-10-18T00:13:35;66.57;;;59.70;;
8488;SDS011;4281;45.772;12.852;2022-10-18T00:16:04;116.23;;;68.20;;
8488;SDS011;4281;45.772;12.852;2022-10-18T00:18:57;93.73;;;68.83;;
8488;SDS011;4281;45.772;12.852;2022-10-18T00:21:25;69.60;;;61.30;;
8488;SDS011;4281;45.772;12.852;2022-10-18T00:23:53;69.90;;;62.40;;
8488;SDS011;4281;45.772;12.852;2022-10-18T00:26:24;91.57;;;67.20;;
8488;SDS011;4281;45.772;12.852;2022-10-18T00:28:55;231.07;;;78.23;;
8488;SDS011;4281;45.772;12.852;2022-10-18T00:31:25;86.50;;;65.47;;
8488;SDS011;4281;45.772;12.852;2022-10-18T00:33:56;95.83;;;69.93;;
8488;SDS011;4281;45.772;12.852;2022-10-18T00:36:28;163.80;;;71.30;;
8488;SDS011;4281;45.772;12.852;2022-10-18T00:38:57;86.60;;;69.47;;
8488;SDS011;4281;45.772;12.852;2022-10-18T00:41:28;82.80;;;65.20;;
8488;SDS011;4281;45.772;12.852;2022-10-18T00:44:02;95.77;;;65.13;;
8488;SDS011;4281;45.772;12.852;2022-10-18T00:46:34;129.57;;;69.10;;
8488;SDS011;4281;45.772;12.852;2022-10-18T00:49:05;71.60;;;63.33;;
8488;SDS011;4281;45.772;12.852;2022-10-18T00:51:37;74.80;;;65.40;;
8488;SDS011;4281;45.772;12.852;2022-10-18T00:54:09;73.23;;;63.30;;
8488;SDS011;4281;45.772;12.852;2022-10-18T00:56:39;75.63;;;63.33;;
8488;SDS011;4281;45.772;12.852;2022-10-18T00:59:10;78.20;;;63.27;;
8488;SDS011;4281;45.772;12.852;2022-10-18T01:01:40;67.70;;;60.60;;
8488;SDS011;4281;45.772;12.852;2022-10-18T01:04:08;67.47;;;60.50;;
8488;SDS011;4281;45.772;12.852;2022-10-18T01:06:38;63.70;;;57.13;;
8488;SDS011;4281;45.772;12.852;2022-10-18T01:09:13;60.63;;;54.73;;
8488;SDS011;4281;45.772;12.852;2022-10-18T01:11:54;65.87;;;59.07;;
8488;SDS011;4281;45.772;12.852;2022-10-18T01:14:38;62.40;;;55.80;;
8488;SDS011;4281;45.772;12.852;2022-10-18T01:17:12;59.60;;;53.57;;
8488;SDS011;4281;45.772;12.852;2022-10-18T01:20:02;65.37;;;58.50;;
8488;SDS011;4281;45.772;12.852;2022-10-18T01:22:47;63.10;;;56.50;;
8488;SDS011;4281;45.772;12.852;2022-10-18T01:25:26;61.10;;;54.80;;
8488;SDS011;4281;45.772;12.852;2022-10-18T01:28:08;62.57;;;55.97;;
8488;SDS011;4281;45.772;12.852;2022-10-18T01:30:46;59.83;;;53.73;;
8488;SDS011;4281;45.772;12.852;2022-10-18T01:36:08;61.10;;;54.73;;
8488;SDS011;4281;45.772;12.852;2022-10-18T01:38:41;61.50;;;54.87;;
8488;SDS011;4281;45.772;12.852;2022-10-18T01:41:11;63.80;;;57.20;;
8488;SDS011;4281;45.772;12.852;2022-10-18T01:43:42;64.67;;;57.87;;
8488;SDS011;4281;45.772;12.852;2022-10-18T01:46:15;60.90;;;54.47;;
8488;SDS011;4281;45.772;12.852;2022-10-18T01:48:47;62.70;;;56.17;;
8488;SDS011;4281;45.772;12.852;2022-10-18T01:51:17;60.77;;;54.67;;
8488;SDS011;4281;45.772;12.852;2022-10-18T01:53:46;63.67;;;56.87;;
8488;SDS011;4281;45.772;12.852;2022-10-18T01:56:29;64.60;;;57.17;;
8488;SDS011;4281;45.772;12.852;2022-10-18T01:59:19;74.53;;;59.87;;
8488;SDS011;4281;45.772;12.852;2022-10-18T02:02:08;59.40;;;53.20;;
8488;SDS011;4281;45.772;12.852;2022-10-18T02:04:47;137.97;;;60.40;;
8488;SDS011;4281;45.772;12.852;2022-10-18T02:07:22;64.60;;;56.83;;
8488;SDS011;4281;45.772;12.852;2022-10-18T02:09:57;72.50;;;55.13;;
8488;SDS011;4281;45.772;12.852;2022-10-18T02:12:32;56.47;;;50.63;;
8488;SDS011;4281;45.772;12.852;2022-10-18T02:15:01;62.03;;;54.10;;
8488;SDS011;4281;45.772;12.852;2022-10-18T02:17:34;102.80;;;54.57;;
8488;SDS011;4281;45.772;12.852;2022-10-18T02:20:04;58.43;;;52.07;;
8488;SDS011;4281;45.772;12.852;2022-10-18T02:22:35;60.53;;;51.87;;
8488;SDS011;4281;45.772;12.852;2022-10-18T02:25:08;58.77;;;52.50;;
8488;SDS011;4281;45.772;12.852;2022-10-18T02:27:42;53.73;;;48.37;;
8488;SDS011;4281;45.772;12.852;2022-10-18T02:30:10;70.50;;;52.80;;
8488;SDS011;4281;45.772;12.852;2022-10-18T02:32:42;58.00;;;51.77;;
8488;SDS011;4281;45.772;12.852;2022-10-18T02:35:17;57.67;;;51.50;;
8488;SDS011;4281;45.772;12.852;2022-10-18T02:37:48;58.37;;;52.00;;
8488;SDS011;4281;45.772;12.852;2022-10-18T02:40:18;54.70;;;48.97;;
8488;SDS011;4281;45.772;12.852;2022-10-18T02:42:47;287.53;;;60.57;;
8488;SDS011;4281;45.772;12.852;2022-10-18T02:45:16;56.67;;;50.73;;
8488;SDS011;4281;45.772;12.852;2022-10-18T02:47:46;141.80;;;53.77;;
8488;SDS011;4281;45.772;12.852;2022-10-18T02:50:15;58.50;;;51.93;;
8488;SDS011;4281;45.772;12.852;2022-10-18T02:52:44;59.70;;;52.27;;
8488;SDS011;4281;45.772;12.852;2022-10-18T02:55:12;73.00;;;53.43;;
8488;SDS011;4281;45.772;12.852;2022-10-18T02:57:40;140.73;;;55.83;;
8488;SDS011;4281;45.772;12.852;2022-10-18T03:00:09;126.03;;;62.97;;
8488;SDS011;4281;45.772;12.852;2022-10-18T03:02:38;85.03;;;60.27;;
8488;SDS011;4281;45.772;12.852;2022-10-18T03:05:08;70.20;;;57.03;;
8488;SDS011;4281;45.772;12.852;2022-10-18T03:07:36;68.60;;;56.53;;
8488;SDS011;4281;45.772;12.852;2022-10-18T03:10:05;123.63;;;62.40;;
8488;SDS011;4281;45.772;12.852;2022-10-18T03:12:34;84.93;;;56.67;;
8488;SDS011;4281;45.772;12.852;2022-10-18T03:15:02;74.03;;;58.47;;
8488;SDS011;4281;45.772;12.852;2022-10-18T03:17:31;75.77;;;54.30;;
8488;SDS011;4281;45.772;12.852;2022-10-18T03:20:00;80.63;;;55.40;;
8488;SDS011;4281;45.772;12.852;2022-10-18T03:22:29;87.97;;;53.20;;
8488;SDS011;4281;45.772;12.852;2022-10-18T03:24:57;169.00;;;58.53;;
8488;SDS011;4281;45.772;12.852;2022-10-18T03:27:26;77.27;;;53.67;;
8488;SDS011;4281;45.772;12.852;2022-10-18T03:29:54;74.93;;;53.73;;
8488;SDS011;4281;45.772;12.852;2022-10-18T03:32:23;74.23;;;54.67;;
8488;SDS011;4281;45.772;12.852;2022-10-18T03:34:51;80.17;;;56.30;;
8488;SDS011;4281;45.772;12.852;2022-10-18T03:37:19;85.80;;;55.63;;
8488;SDS011;4281;45.772;12.852;2022-10-18T03:39:49;68.63;;;51.33;;
8488;SDS011;4281;45.772;12.852;2022-10-18T03:42:17;96.63;;;56.73;;
8488;SDS011;4281;45.772;12.852;2022-10-18T03:44:45;73.60;;;54.03;;
8488;SDS011;4281;45.772;12.852;2022-10-18T03:47:14;68.77;;;51.10;;
8488;SDS011;4281;45.772;12.852;2022-10-18T03:49:42;71.97;;;51.40;;
8488;SDS011;4281;45.772;12.852;2022-10-18T03:52:10;88.70;;;54.40;;
8488;SDS011;4281;45.772;12.852;2022-10-18T03:54:38;254.10;;;57.97;;
8488;SDS011;4281;45.772;12.852;2022-10-18T03:57:09;86.17;;;51.83;;
8488;SDS011;4281;45.772;12.852;2022-10-18T03:59:37;75.67;;;51.63;;
8488;SDS011;4281;45.772;12.852;2022-10-18T04:02:05;99.83;;;53.37;;
8488;SDS011;4281;45.772;12.852;2022-10-18T04:04:34;125.13;;;56.97;;
8488;SDS011;4281;45.772;12.852;2022-10-18T04:07:02;106.77;;;52.87;;
8488;SDS011;4281;45.772;12.852;2022-10-18T04:09:30;172.40;;;57.03;;
8488;SDS011;4281;45.772;12.852;2022-10-18T04:11:58;166.50;;;57.70;;
8488;SDS011;4281;45.772;12.852;2022-10-18T04:14:28;69.57;;;50.70;;
8488;SDS011;4281;45.772;12.852;2022-10-18T04:19:41;95.73;;;58.00;;
8488;SDS011;4281;45.772;12.852;2022-10-18T04:22:09;87.43;;;55.70;;
8488;SDS011;4281;45.772;12.852;2022-10-18T04:24:38;81.77;;;53.87;;
8488;SDS011;4281;45.772;12.852;2022-10-18T04:27:06;84.20;;;53.80;;
8488;SDS011;4281;45.772;12.852;2022-10-18T04:29:36;75.07;;;50.10;;
8488;SDS011;4281;45.772;12.852;2022-10-18T04:32:05;69.87;;;47.73;;
8488;SDS011;4281;45.772;12.852;2022-10-18T04:34:33;67.97;;;46.07;;
8488;SDS011;4281;45.772;12.852;2022-10-18T04:37:01;100.53;;;44.33;;
8488;SDS011;4281;45.772;12.852;2022-10-18T04:39:30;85.07;;;44.03;;
8488;SDS011;4281;45.772;12.852;2022-10-18T04:41:58;219.60;;;47.57;;
8488;SDS011;4281;45.772;12.852;2022-10-18T04:44:26;149.93;;;42.03;;
8488;SDS011;4281;45.772;12.852;2022-10-18T04:46:56;58.43;;;38.90;;
8488;SDS011;4281;45.772;12.852;2022-10-18T04:49:24;49.00;;;37.67;;
8488;SDS011;4281;45.772;12.852;2022-10-18T04:51:52;53.20;;;39.67;;
8488;SDS011;4281;45.772;12.852;2022-10-18T04:54:21;47.87;;;37.80;;
8488;SDS011;4281;45.772;12.852;2022-10-18T04:56:53;44.13;;;35.00;;
8488;SDS011;4281;45.772;12.852;2022-10-18T04:59:22;39.53;;;35.17;;
8488;SDS011;4281;45.772;12.852;2022-10-18T05:01:50;41.57;;;34.57;;
8488;SDS011;4281;45.772;12.852;2022-10-18T05:04:20;43.37;;;36.27;;
8488;SDS011;4281;45.772;12.852;2022-10-18T05:06:49;42.57;;;35.00;;
8488;SDS011;4281;45.772;12.852;2022-10-18T05:09:17;41.23;;;34.57;;
8488;SDS011;4281;45.772;12.852;2022-10-18T05:11:47;37.87;;;32.33;;
8488;SDS011;4281;45.772;12.852;2022-10-18T05:14:18;40.73;;;34.23;;
8488;SDS011;4281;45.772;12.852;2022-10-18T05:16:46;37.70;;;32.77;;
8488;SDS011;4281;45.772;12.852;2022-10-18T05:19:14;37.57;;;31.57;;
8488;SDS011;4281;45.772;12.852;2022-10-18T05:21:44;35.57;;;30.00;;
8488;SDS011;4281;45.772;12.852;2022-10-18T05:24:12;35.53;;;31.47;;
8488;SDS011;4281;45.772;12.852;2022-10-18T05:26:41;35.07;;;30.83;;
8488;SDS011;4281;45.772;12.852;2022-10-18T05:29:09;31.83;;;28.33;;
8488;SDS011;4281;45.772;12.852;2022-10-18T05:31:38;34.00;;;30.27;;
8488;SDS011;4281;45.772;12.852;2022-10-18T05:34:07;30.90;;;27.63;;
8488;SDS011;4281;45.772;12.852;2022-10-18T05:36:35;27.97;;;25.10;;
8488;SDS011;4281;45.772;12.852;2022-10-18T05:39:05;29.60;;;26.60;;
8488;SDS011;4281;45.772;12.852;2022-10-18T05:41:33;29.17;;;26.17;;
8488;SDS011;4281;45.772;12.852;2022-10-18T05:44:03;29.13;;;26.23;;
8488;SDS011;4281;45.772;12.852;2022-10-18T05:46:32;28.43;;;25.57;;
8488;SDS011;4281;45.772;12.852;2022-10-18T05:49:00;29.03;;;26.00;;
8488;SDS011;4281;45.772;12.852;2022-10-18T05:51:28;25.67;;;23.17;;
8488;SDS011;4281;45.772;12.852;2022-10-18T05:53:57;26.33;;;23.80;;
8488;SDS011;4281;45.772;12.852;2022-10-18T05:56:27;26.43;;;23.83;;
8488;SDS011;4281;45.772;12.852;2022-10-18T05:58:55;26.10;;;23.50;;
8488;SDS011;4281;45.772;12.852;2022-10-18T06:01:24;24.83;;;22.43;;
8488;SDS011;4281;45.772;12.852;2022-10-18T06:03:52;25.87;;;23.37;;
8488;SDS011;4281;45.772;12.852;2022-10-18T06:06:20;27.90;;;25.07;;
8488;SDS011;4281;45.772;12.852;2022-10-18T06:08:48;27.07;;;24.13;;
8488;SDS011;4281;45.772;12.852;2022-10-18T06:11:17;27.10;;;24.50;;
8488;SDS011;4281;45.772;12.852;2022-10-18T06:13:49;32.77;;;25.83;;
8488;SDS011;4281;45.772;12.852;2022-10-18T06:16:18;29.70;;;26.77;;
8488;SDS011;4281;45.772;12.852;2022-10-18T06:18:53;28.20;;;25.30;;
8488;SDS011;4281;45.772;12.852;2022-10-18T06:21:23;29.63;;;26.43;;
8488;SDS011;4281;45.772;12.852;2022-10-18T06:23:52;29.53;;;26.47;;
8488;SDS011;4281;45.772;12.852;2022-10-18T06:26:23;29.57;;;26.43;;
8488;SDS011;4281;45.772;12.852;2022-10-18T06:28:54;32.33;;;29.03;;
8488;SDS011;4281;45.772;12.852;2022-10-18T06:31:22;31.30;;;27.00;;
8488;SDS011;4281;45.772;12.852;2022-10-18T06:46:32;35.33;;;31.73;;
8488;SDS011;4281;45.772;12.852;2022-10-18T06:49:00;31.80;;;28.40;;
8488;SDS011;4281;45.772;12.852;2022-10-18T06:51:29;33.40;;;29.93;;
8488;SDS011;4281;45.772;12.852;2022-10-18T06:53:57;32.87;;;29.30;;
8488;SDS011;4281;45.772;12.852;2022-10-18T06:56:43;31.70;;;28.60;;
8488;SDS011;4281;45.772;12.852;2022-10-18T06:59:11;34.67;;;30.90;;
8488;SDS011;4281;45.772;12.852;2022-10-18T07:13:04;39.23;;;34.53;;
8488;SDS011;4281;45.772;12.852;2022-10-18T07:15:59;42.43;;;35.87;;
8488;SDS011;4281;45.772;12.852;2022-10-18T07:18:29;42.87;;;38.37;;
8488;SDS011;4281;45.772;12.852;2022-10-18T07:20:56;42.60;;;37.83;;
8488;SDS011;4281;45.772;12.852;2022-10-18T07:23:27;40.27;;;35.93;;
8488;SDS011;4281;45.772;12.852;2022-10-18T07:25:55;41.03;;;36.27;;
8488;SDS011;4281;45.772;12.852;2022-10-18T07:28:25;36.97;;;33.17;;
8488;SDS011;4281;45.772;12.852;2022-10-18T07:30:53;38.80;;;34.70;;
8488;SDS011;4281;45.772;12.852;2022-10-18T07:33:21;43.57;;;38.80;;
8488;SDS011;4281;45.772;12.852;2022-10-18T07:35:51;42.33;;;37.83;;
8488;SDS011;4281;45.772;12.852;2022-10-18T07:38:19;42.97;;;38.07;;
8488;SDS011;4281;45.772;12.852;2022-10-18T07:40:48;38.03;;;34.03;;
8488;SDS011;4281;45.772;12.852;2022-10-18T07:43:22;38.10;;;34.27;;
8488;SDS011;4281;45.772;12.852;2022-10-18T07:45:52;37.53;;;33.40;;
8488;SDS011;4281;45.772;12.852;2022-10-18T07:48:20;39.03;;;35.00;;
8488;SDS011;4281;45.772;12.852;2022-10-18T07:50:49;37.80;;;33.70;;
8488;SDS011;4281;45.772;12.852;2022-10-18T07:53:17;37.77;;;33.80;;
8488;SDS011;4281;45.772;12.852;2022-10-18T07:55:45;38.73;;;34.23;;
8488;SDS011;4281;45.772;12.852;2022-10-18T07:58:13;47.30;;;40.00;;
8488;SDS011;4281;45.772;12.852;2022-10-18T08:00:42;45.37;;;40.03;;
8488;SDS011;4281;45.772;12.852;2022-10-18T08:03:10;41.20;;;36.80;;
8488;SDS011;4281;45.772;12.852;2022-10-18T08:05:38;42.20;;;37.53;;
8488;SDS011;4281;45.772;12.852;2022-10-18T08:08:06;56.33;;;44.23;;
8488;SDS011;4281;45.772;12.852;2022-10-18T08:10:36;55.47;;;44.17;;
8488;SDS011;4281;45.772;12.852;2022-10-18T08:13:04;64.03;;;49.90;;
8488;SDS011;4281;45.772;12.852;2022-10-18T08:15:32;72.77;;;54.83;;
8488;SDS011;4281;45.772;12.852;2022-10-18T08:18:01;77.37;;;59.43;;
8488;SDS011;4281;45.772;12.852;2022-10-18T08:20:29;81.30;;;60.07;;
8488;SDS011;4281;45.772;12.852;2022-10-18T08:22:58;74.03;;;55.23;;
8488;SDS011;4281;45.772;12.852;2022-10-18T08:25:26;71.83;;;54.23;;
8488;SDS011;4281;45.772;12.852;2022-10-18T08:27:55;64.80;;;50.03;;
8488;SDS011;4281;45.772;12.852;2022-10-18T08:30:23;61.30;;;46.60;;
8488;SDS011;4281;45.772;12.852;2022-10-18T08:32:53;55.43;;;43.97;;
8488;SDS011;4281;45.772;12.852;2022-10-18T08:35:22;58.73;;;47.00;;
8488;SDS011;4281;45.772;12.852;2022-10-18T08:37:50;57.23;;;47.13;;
8488;SDS011;4281;45.772;12.852;2022-10-18T08:40:18;73.27;;;52.73;;
8488;SDS011;4281;45.772;12.852;2022-10-18T08:42:49;65.20;;;50.63;;
8488;SDS011;4281;45.772;12.852;2022-10-18T08:45:25;65.77;;;49.63;;
8488;SDS011;4281;45.772;12.852;2022-10-18T08:48:10;66.13;;;50.90;;
8488;SDS011;4281;45.772;12.852;2022-10-18T08:50:48;73.00;;;51.97;;
8488;SDS011;4281;45.772;12.852;2022-10-18T08:53:18;75.73;;;52.17;;
8488;SDS011;4281;45.772;12.852;2022-10-18T08:55:51;75.07;;;53.23;;
8488;SDS011;4281;45.772;12.852;2022-10-18T08:58:24;75.00;;;52.93;;
8488;SDS011;4281;45.772;12.852;2022-10-18T09:00:57;59.43;;;46.90;;
8488;SDS011;4281;45.772;12.852;2022-10-18T09:03:40;71.80;;;52.40;;
8488;SDS011;4281;45.772;12.852;2022-10-18T09:06:30;62.73;;;48.53;;
8488;SDS011;4281;45.772;12.852;2022-10-18T09:09:05;80.03;;;55.33;;
8488;SDS011;4281;45.772;12.852;2022-10-18T09:11:48;69.10;;;51.07;;
8488;SDS011;4281;45.772;12.852;2022-10-18T09:14:36;81.20;;;58.07;;
8488;SDS011;4281;45.772;12.852;2022-10-18T09:17:16;87.77;;;60.57;;
8488;SDS011;4281;45.772;12.852;2022-10-18T09:20:02;91.63;;;58.83;;
8488;SDS011;4281;45.772;12.852;2022-10-18T09:22:47;84.77;;;57.83;;
8488;SDS011;4281;45.772;12.852;2022-10-18T09:25:20;86.17;;;59.00;;
8488;SDS011;4281;45.772;12.852;2022-10-18T09:27:51;84.63;;;60.20;;
8488;SDS011;4281;45.772;12.852;2022-10-18T09:33:16;90.20;;;61.37;;
8488;SDS011;4281;45.772;12.852;2022-10-18T09:35:53;96.33;;;66.37;;
8488;SDS011;4281;45.772;12.852;2022-10-18T09:38:26;97.33;;;64.33;;
8488;SDS011;4281;45.772;12.852;2022-10-18T09:40:59;97.97;;;63.17;;
8488;SDS011;4281;45.772;12.852;2022-10-18T09:43:42;106.13;;;69.13;;
8488;SDS011;4281;45.772;12.852;2022-10-18T09:46:17;97.10;;;65.93;;
8488;SDS011;4281;45.772;12.852;2022-10-18T09:48:48;101.87;;;68.40;;
8488;SDS011;4281;45.772;12.852;2022-10-18T09:51:22;92.43;;;62.90;;
8488;SDS011;4281;45.772;12.852;2022-10-18T09:53:59;105.77;;;70.87;;
8488;SDS011;4281;45.772;12.852;2022-10-18T09:56:38;103.63;;;68.83;;
8488;SDS011;4281;45.772;12.852;2022-10-18T09:59:16;101.50;;;64.53;;
8488;SDS011;4281;45.772;12.852;2022-10-18T10:02:01;98.77;;;67.03;;
8488;SDS011;4281;45.772;12.852;2022-10-18T10:04:29;93.17;;;63.67;;
8488;SDS011;4281;45.772;12.852;2022-10-18T10:06:58;102.97;;;62.80;;
8488;SDS011;4281;45.772;12.852;2022-10-18T10:09:29;88.30;;;58.80;;
8488;SDS011;4281;45.772;12.852;2022-10-18T10:12:03;87.40;;;56.87;;
8488;SDS011;4281;45.772;12.852;2022-10-18T10:14:31;87.17;;;57.57;;
8488;SDS011;4281;45.772;12.852;2022-10-18T10:17:20;79.23;;;52.37;;
8488;SDS011;4281;45.772;12.852;2022-10-18T10:19:56;90.93;;;57.60;;
8488;SDS011;4281;45.772;12.852;2022-10-18T10:22:30;93.93;;;57.53;;
8488;SDS011;4281;45.772;12.852;2022-10-18T10:25:03;88.47;;;56.63;;
8488;SDS011;4281;45.772;12.852;2022-10-18T10:27:33;89.80;;;58.50;;
8488;SDS011;4281;45.772;12.852;2022-10-18T10:30:20;78.70;;;52.93;;
8488;SDS011;4281;45.772;12.852;2022-10-18T10:32:50;94.93;;;63.17;;
8488;SDS011;4281;45.772;12.852;2022-10-18T10:35:20;92.40;;;61.07;;
8488;SDS011;4281;45.772;12.852;2022-10-18T10:38:20;83.57;;;58.00;;
8488;SDS011;4281;45.772;12.852;2022-10-18T10:40:51;83.57;;;57.03;;
8488;SDS011;4281;45.772;12.852;2022-10-18T10:43:20;73.30;;;51.97;;
8488;SDS011;4281;45.772;12.852;2022-10-18T10:46:04;75.70;;;53.30;;
8488;SDS011;4281;45.772;12.852;2022-10-18T10:48:38;74.27;;;52.87;;
8488;SDS011;4281;45.772;12.852;2022-10-18T10:51:12;85.43;;;57.90;;
8488;SDS011;4281;45.772;12.852;2022-10-18T10:53:42;74.13;;;53.50;;
8488;SDS011;4281;45.772;12.852;2022-10-18T10:56:19;75.70;;;55.53;;
8488;SDS011;4281;45.772;12.852;2022-10-18T10:58:49;73.93;;;53.93;;
8488;SDS011;4281;45.772;12.852;2022-10-18T11:01:21;67.13;;;51.60;;
8488;SDS011;4281;45.772;12.852;2022-10-18T11:03:51;60.13;;;47.97;;
8488;SDS011;4281;45.772;12.852;2022-10-18T11:06:36;61.50;;;48.10;;
8488;SDS011;4281;45.772;12.852;2022-10-18T11:09:14;60.10;;;47.33;;
8488;SDS011;4281;45.772;12.852;2022-10-18T11:11:57;61.33;;;49.17;;
8488;SDS011;4281;45.772;12.852;2022-10-18T11:14:40;51.53;;;43.70;;
8488;SDS011;4281;45.772;12.852;2022-10-18T11:17:13;64.13;;;53.07;;
8488;SDS011;4281;45.772;12.852;2022-10-18T11:19:54;67.07;;;54.20;;
8488;SDS011;4281;45.772;12.852;2022-10-18T11:22:32;63.70;;;51.17;;
8488;SDS011;4281;45.772;12.852;2022-10-18T11:25:02;60.80;;;49.90;;
8488;SDS011;4281;45.772;12.852;2022-10-18T11:27:33;59.10;;;50.23;;
8488;SDS011;4281;45.772;12.852;2022-10-18T11:30:20;57.90;;;48.23;;
8488;SDS011;4281;45.772;12.852;2022-10-18T11:33:03;60.90;;;49.43;;
8488;SDS011;4281;45.772;12.852;2022-10-18T11:35:41;59.07;;;50.43;;
8488;SDS011;4281;45.772;12.852;2022-10-18T11:41:10;54.17;;;47.53;;
8488;SDS011;4281;45.772;12.852;2022-10-18T11:43:51;54.63;;;47.90;;
8488;SDS011;4281;45.772;12.852;2022-10-18T11:46:42;52.33;;;46.00;;
8488;SDS011;4281;45.772;12.852;2022-10-18T11:49:22;52.40;;;46.70;;
8488;SDS011;4281;45.772;12.852;2022-10-18T11:52:02;53.57;;;46.60;;
8488;SDS011;4281;45.772;12.852;2022-10-18T11:54:44;53.93;;;48.17;;
8488;SDS011;4281;45.772;12.852;2022-10-18T11:57:29;51.67;;;45.67;;
8488;SDS011;4281;45.772;12.852;2022-10-18T12:00:12;50.87;;;45.47;;
8488;SDS011;4281;45.772;12.852;2022-10-18T12:02:53;49.30;;;44.03;;
8488;SDS011;4281;45.772;12.852;2022-10-18T12:05:34;50.60;;;44.97;;
8488;SDS011;4281;45.772;12.852;2022-10-18T12:08:06;47.20;;;42.10;;
8488;SDS011;4281;45.772;12.852;2022-10-18T12:10:39;42.23;;;37.90;;
8488;SDS011;4281;45.772;12.852;2022-10-18T12:13:35;44.67;;;40.07;;
8488;SDS011;4281;45.772;12.852;2022-10-18T12:16:08;42.30;;;38.10;;
8488;SDS011;4281;45.772;12.852;2022-10-18T12:18:44;42.20;;;37.83;;
8488;SDS011;4281;45.772;12.852;2022-10-18T12:21:16;40.93;;;36.17;;
8488;SDS011;4281;45.772;12.852;2022-10-18T12:23:51;39.43;;;35.33;;
8488;SDS011;4281;45.772;12.852;2022-10-18T12:26:22;38.77;;;34.77;;
8488;SDS011;4281;45.772;12.852;2022-10-18T12:31:47;38.57;;;34.57;;
8488;SDS011;4281;45.772;12.852;2022-10-18T12:34:27;35.70;;;32.10;;
8488;SDS011;4281;45.772;12.852;2022-10-18T12:37:04;35.37;;;31.67;;
8488;SDS011;4281;45.772;12.852;2022-10-18T12:39:58;33.33;;;30.03;;
8488;SDS011;4281;45.772;12.852;2022-10-18T12:42:42;36.27;;;32.57;;
8488;SDS011;4281;45.772;12.852;2022-10-18T12:45:25;38.27;;;34.43;;
8488;SDS011;4281;45.772;12.852;2022-10-18T12:47:59;38.03;;;34.30;;
8488;SDS011;4281;45.772;12.852;2022-10-18T12:50:30;33.50;;;30.20;;
8488;SDS011;4281;45.772;12.852;2022-10-18T12:53:05;39.40;;;35.37;;
8488;SDS011;4281;45.772;12.852;2022-10-18T12:55:43;38.60;;;34.80;;
8488;SDS011;4281;45.772;12.852;2022-10-18T12:58:29;34.77;;;31.27;;
8488;SDS011;4281;45.772;12.852;2022-10-18T13:01:03;35.30;;;31.87;;
8488;SDS011;4281;45.772;12.852;2022-10-18T13:09:35;40.47;;;33.90;;
8488;SDS011;4281;45.772;12.852;2022-10-18T13:15:14;34.23;;;30.70;;
8488;SDS011;4281;45.772;12.852;2022-10-18T13:18:00;39.30;;;35.40;;
8488;SDS011;4281;45.772;12.852;2022-10-18T13:20:45;40.20;;;36.20;;
8488;SDS011;4281;45.772;12.852;2022-10-18T13:23:28;39.47;;;35.37;;
8488;SDS011;4281;45.772;12.852;2022-10-18T13:26:10;38.03;;;33.93;;
8488;SDS011;4281;45.772;12.852;2022-10-18T13:28:46;37.00;;;33.20;;
8488;SDS011;4281;45.772;12.852;2022-10-18T13:31:22;40.90;;;36.67;;
8488;SDS011;4281;45.772;12.852;2022-10-18T13:33:54;37.53;;;33.83;;
8488;SDS011;4281;45.772;12.852;2022-10-18T13:36:24;38.07;;;34.10;;
8488;SDS011;4281;45.772;12.852;2022-10-18T13:38:58;36.30;;;32.57;;
8488;SDS011;4281;45.772;12.852;2022-10-18T13:41:29;37.47;;;33.67;;
8488;SDS011;4281;45.772;12.852;2022-10-18T13:47:11;37.87;;;33.87;;
8488;SDS011;4281;45.772;12.852;2022-10-18T13:55:49;42.17;;;37.70;;
8488;SDS011;4281;45.772;12.852;2022-10-18T13:58:29;41.50;;;37.07;;
8488;SDS011;4281;45.772;12.852;2022-10-18T14:01:22;36.97;;;33.20;;
8488;SDS011;4281;45.772;12.852;2022-10-18T14:04:06;38.60;;;34.53;;
8488;SDS011;4281;45.772;12.852;2022-10-18T14:06:58;38.23;;;34.37;;
8488;SDS011;4281;45.772;12.852;2022-10-18T14:09:32;38.07;;;34.27;;
8488;SDS011;4281;45.772;12.852;2022-10-18T14:12:13;40.20;;;36.07;;
8488;SDS011;4281;45.772;12.852;2022-10-18T14:14:50;38.33;;;34.53;;
8488;SDS011;4281;45.772;12.852;2022-10-18T14:17:27;40.80;;;36.50;;
8488;SDS011;4281;45.772;12.852;2022-10-18T14:20:02;37.40;;;33.67;;
8488;SDS011;4281;45.772;12.852;2022-10-18T14:22:42;36.67;;;32.73;;
8488;SDS011;4281;45.772;12.852;2022-10-18T14:25:18;36.37;;;32.67;;
8488;SDS011;4281;45.772;12.852;2022-10-18T14:27:49;36.83;;;33.07;;
8488;SDS011;4281;45.772;12.852;2022-10-18T14:30:48;34.57;;;31.20;;
8488;SDS011;4281;45.772;12.852;2022-10-18T14:33:25;34.23;;;30.87;;
8488;SDS011;4281;45.772;12.852;2022-10-18T14:36:04;33.10;;;29.97;;
8488;SDS011;4281;45.772;12.852;2022-10-18T14:38:44;32.03;;;28.83;;
8488;SDS011;4281;45.772;12.852;2022-10-18T14:41:15;32.53;;;29.17;;
8488;SDS011;4281;45.772;12.852;2022-10-18T14:43:48;32.57;;;29.07;;
8488;SDS011;4281;45.772;12.852;2022-10-18T14:46:18;30.43;;;27.43;;
8488;SDS011;4281;45.772;12.852;2022-10-18T14:48:55;32.90;;;29.43;;
8488;SDS011;4281;45.772;12.852;2022-10-18T14:51:25;32.37;;;28.83;;
8488;SDS011;4281;45.772;12.852;2022-10-18T14:53:54;30.47;;;26.53;;
8488;SDS011;4281;45.772;12.852;2022-10-18T14:56:24;29.63;;;26.43;;
8488;SDS011;4281;45.772;12.852;2022-10-18T14:58:57;30.77;;;27.57;;
8488;SDS011;4281;45.772;12.852;2022-10-18T15:01:29;29.97;;;26.93;;
8488;SDS011;4281;45.772;12.852;2022-10-18T15:04:00;31.30;;;28.00;;
8488;SDS011;4281;45.772;12.852;2022-10-18T15:06:31;38.10;;;28.23;;
8488;SDS011;4281;45.772;12.852;2022-10-18T15:09:00;35.63;;;31.47;;
8488;SDS011;4281;45.772;12.852;2022-10-18T15:11:30;34.57;;;30.27;;
8488;SDS011;4281;45.772;12.852;2022-10-18T15:14:01;28.93;;;26.03;;
8488;SDS011;4281;45.772;12.852;2022-10-18T15:16:34;33.83;;;30.33;;
8488;SDS011;4281;45.772;12.852;2022-10-18T15:19:05;29.87;;;26.93;;
8488;SDS011;4281;45.772;12.852;2022-10-18T15:21:53;30.60;;;27.40;;
8488;SDS011;4281;45.772;12.852;2022-10-18T15:24:42;29.17;;;26.27;;
8488;SDS011;4281;45.772;12.852;2022-10-18T15:27:12;30.40;;;27.30;;
8488;SDS011;4281;45.772;12.852;2022-10-18T15:29:47;30.27;;;27.03;;
8488;SDS011;4281;45.772;12.852;2022-10-18T15:32:18;31.00;;;27.87;;
8488;SDS011;4281;45.772;12.852;2022-10-18T15:34:51;30.03;;;27.00;;
8488;SDS011;4281;45.772;12.852;2022-10-18T15:37:29;32.47;;;29.17;;
8488;SDS011;4281;45.772;12.852;2022-10-18T15:40:24;33.50;;;29.90;;
8488;SDS011;4281;45.772;12.852;2022-10-18T15:43:05;30.93;;;27.67;;
8488;SDS011;4281;45.772;12.852;2022-10-18T15:45:50;31.50;;;28.33;;
8488;SDS011;4281;45.772;12.852;2022-10-18T15:48:21;32.47;;;28.97;;
8488;SDS011;4281;45.772;12.852;2022-10-18T15:50:51;34.83;;;31.43;;
8488;SDS011;4281;45.772;12.852;2022-10-18T15:53:24;31.87;;;28.57;;
8488;SDS011;4281;45.772;12.852;2022-10-18T15:56:26;34.93;;;31.47;;
8488;SDS011;4281;45.772;12.852;2022-10-18T15:58:56;34.30;;;30.90;;
8488;SDS011;4281;45.772;12.852;2022-10-18T16:01:30;32.67;;;29.33;;
8488;SDS011;4281;45.772;12.852;2022-10-18T16:04:03;33.40;;;29.97;;
8488;SDS011;4281;45.772;12.852;2022-10-18T16:06:34;34.37;;;30.97;;